Time;durP1;ratioP1;P1;durP2;ratioP2;P2;SDS_P1;SDS_P2;PMS_P1;PMS_P2;Temp;Humidity;BMP_temperature;BMP_pressure;BME280_temperature;BME280_humidity;BME280_pressure;Samples;Min_cycle;Max_cycle;Signal;HPM_P1;HPM_P2
2023/10/27 00:01:49;;;;;;;;;;;10.20;99.90;;;;;;5012059;28;19953;-73
2023/10/27 00:04:15;;;;;;;;;;;10.20;99.90;;;;;;5017111;28;19932;-73
2023/10/27 00:06:42;;;;;;;;;;;10.20;99.90;;;;;;5010949;28;19956;-74
2023/10/27 00:09:08;;;;;;;;;;;10.20;99.90;;;;;;5011982;28;20446;-74
2023/10/27 00:11:35;;;;;;;;;;;10.20;99.90;;;;;;5011141;28;20383;-73
2023/10/27 00:14:02;;;;;;;;;;;10.20;99.90;;;;;;5011980;28;19929;-73
2023/10/27 00:16:30;;;;;;;;;;;10.10;99.90;;;;;;5011529;28;20289;-73
2023/10/27 00:18:57;;;;;;;;;;;10.10;99.90;;;;;;5010823;28;19926;-73
2023/10/27 00:21:23;;;;;;;;;;;10.10;99.90;;;;;;5012213;28;19926;-73
2023/10/27 00:23:50;;;;;;;;;;;10.00;99.90;;;;;;5011780;28;20350;-73
2023/10/27 00:26:16;;;;;;;;;;;10.00;99.90;;;;;;5011189;28;19952;-73
2023/10/27 00:28:45;;;;;;;;;;;10.00;99.90;;;;;;5011252;28;19952;-73
2023/10/27 00:31:12;;;;;;;;;;;10.00;99.90;;;;;;5010542;28;20395;-72
2023/10/27 00:33:39;;;;;;;;;;;10.00;99.90;;;;;;5012084;28;19979;-74
2023/10/27 00:36:06;;;;;;;;;;;10.00;99.90;;;;;;5011267;28;19926;-73
2023/10/27 00:38:33;;;;;;;;;;;9.90;99.90;;;;;;5010996;28;19929;-73
2023/10/27 00:40:59;;;;;;;;;;;9.90;99.90;;;;;;5011164;28;20481;-73
2023/10/27 00:43:26;;;;;;;;;;;9.90;99.90;;;;;;5011379;28;19932;-73
2023/10/27 00:45:53;;;;;;;;;;;10.00;99.90;;;;;;5010782;28;20395;-73
2023/10/27 00:48:21;;;;;;;;;;;10.00;99.90;;;;;;5010664;28;20565;-73
2023/10/27 00:50:49;;;;;;;;;;;10.00;99.90;;;;;;5011056;28;19933;-73
2023/10/27 00:53:18;;;;;;;;;;;10.00;99.90;;;;;;5011833;28;19926;-73
2023/10/27 00:55:45;;;;;;;;;;;10.00;99.90;;;;;;5010573;28;19972;-73
2023/10/27 00:58:12;;;;;;;;;;;10.00;99.90;;;;;;5010303;28;20667;-72
2023/10/27 01:00:39;;;;;;;;;;;10.00;99.90;;;;;;5013930;28;19933;-73
2023/10/27 01:03:05;;;;;;;;;;;10.00;99.90;;;;;;5010518;28;19930;-73
2023/10/27 01:05:32;;;;;;;;;;;10.00;99.90;;;;;;5011726;28;19933;-73
2023/10/27 01:08:00;;;;;;;;;;;10.10;99.90;;;;;;5010016;28;19987;-73
2023/10/27 01:10:27;;;;;;;;;;;10.10;99.90;;;;;;5010821;28;20024;-73
2023/10/27 01:12:53;;;;;;;;;;;10.10;99.90;;;;;;5011268;28;19925;-74
2023/10/27 01:15:20;;;;;;;;;;;10.10;99.90;;;;;;5010554;28;19929;-73
2023/10/27 01:17:46;;;;;;;;;;;10.10;99.90;;;;;;5010092;28;20012;-73
2023/10/27 01:20:13;;;;;;;;;;;10.10;99.90;;;;;;5010675;28;19925;-73
2023/10/27 01:22:43;;;;;;;;;;;10.10;99.90;;;;;;5010654;28;19980;-74
2023/10/27 01:25:10;;;;;;;;;;;10.10;99.90;;;;;;5011767;28;19925;-73
2023/10/27 01:27:36;;;;;;;;;;;10.10;99.90;;;;;;5009478;28;19933;-75
2023/10/27 01:30:03;;;;;;;;;;;10.10;99.90;;;;;;5010945;28;19929;-74
2023/10/27 01:32:29;;;;;;;;;;;10.00;99.90;;;;;;5011099;28;19972;-74
2023/10/27 01:34:56;;;;;;;;;;;10.00;99.90;;;;;;5009870;28;19929;-73
2023/10/27 01:37:22;;;;;;;;;;;10.00;99.90;;;;;;5010518;28;19934;-73
2023/10/27 01:39:50;;;;;;;;;;;10.00;99.90;;;;;;5010762;28;19980;-74
2023/10/27 01:42:17;;;;;;;;;;;10.00;99.90;;;;;;5010950;28;19929;-73
2023/10/27 01:44:43;;;;;;;;;;;9.90;99.90;;;;;;5011112;28;19930;-73
2023/10/27 01:47:10;;;;;;;;;;;9.90;99.90;;;;;;5008706;28;19933;-73
2023/10/27 01:49:36;;;;;;;;;;;9.90;99.90;;;;;;5010885;28;19925;-73
2023/10/27 01:52:03;;;;;;;;;;;9.90;99.90;;;;;;5011499;28;19956;-73
2023/10/27 01:54:30;;;;;;;;;;;10.10;99.90;;;;;;5010018;28;19980;-74
2023/10/27 01:56:57;;;;;;;;;;;9.80;99.90;;;;;;5010329;28;19937;-73
2023/10/27 01:59:24;;;;;;;;;;;9.80;99.90;;;;;;5010511;28;20293;-74
2023/10/27 02:01:50;;;;;;;;;;;9.70;99.90;;;;;;5010426;28;19929;-73
2023/10/27 02:04:20;;;;;;;;;;;9.70;99.90;;;;;;5010714;28;20380;-74
2023/10/27 02:06:46;;;;;;;;;;;9.70;99.90;;;;;;5009364;28;20020;-74
2023/10/27 02:09:13;;;;;;;;;;;9.60;99.90;;;;;;5010379;28;20362;-74
2023/10/27 02:11:39;;;;;;;;;;;9.60;99.90;;;;;;5010508;28;19925;-75
2023/10/27 02:14:07;;;;;;;;;;;9.60;99.90;;;;;;5010271;28;20426;-73
2023/10/27 02:16:33;;;;;;;;;;;9.60;99.90;;;;;;5010455;28;19930;-73
2023/10/27 02:19:00;;;;;;;;;;;9.50;99.90;;;;;;5010711;28;19925;-73
2023/10/27 02:21:26;;;;;;;;;;;9.50;99.90;;;;;;5010428;28;19925;-74
2023/10/27 02:23:53;;;;;;;;;;;9.50;99.90;;;;;;5010492;28;19933;-73
2023/10/27 02:26:19;;;;;;;;;;;9.40;99.90;;;;;;5009909;28;20343;-74
2023/10/27 02:28:46;;;;;;;;;;;9.40;99.90;;;;;;5009936;28;20310;-73
2023/10/27 02:31:14;;;;;;;;;;;9.40;99.90;;;;;;5009217;28;20293;-73
2023/10/27 02:33:40;;;;;;;;;;;9.40;99.90;;;;;;5013793;28;19979;-73
2023/10/27 02:36:07;;;;;;;;;;;9.40;99.90;;;;;;5013726;28;19972;-74
2023/10/27 02:38:33;;;;;;;;;;;9.30;99.90;;;;;;5012646;28;19930;-74
2023/10/27 02:41:07;;;;;;;;;;;9.30;99.90;;;;;;5013861;28;19936;-73
2023/10/27 02:43:34;;;;;;;;;;;9.30;99.90;;;;;;5014354;28;20346;-74
2023/10/27 02:46:00;;;;;;;;;;;9.30;99.90;;;;;;5013182;28;19926;-73
2023/10/27 02:48:28;;;;;;;;;;;9.30;99.90;;;;;;5012810;28;20403;-73
2023/10/27 02:50:55;;;;;;;;;;;9.30;99.90;;;;;;5011926;28;19980;-74
2023/10/27 02:53:21;;;;;;;;;;;9.20;99.90;;;;;;5013785;28;19925;-73
2023/10/27 02:55:48;;;;;;;;;;;9.20;99.90;;;;;;5013470;28;19930;-74
2023/10/27 02:58:14;;;;;;;;;;;9.20;99.90;;;;;;5012133;28;20698;-73
2023/10/27 03:00:41;;;;;;;;;;;9.20;99.90;;;;;;5013280;28;19972;-73
2023/10/27 03:03:08;;;;;;;;;;;9.20;99.90;;;;;;5016594;28;19925;-74
2023/10/27 03:05:35;;;;;;;;;;;9.20;99.90;;;;;;5013022;28;19929;-73
2023/10/27 03:08:02;;;;;;;;;;;9.20;99.90;;;;;;5012245;28;20362;-73
2023/10/27 03:10:29;;;;;;;;;;;9.10;99.90;;;;;;5012847;28;19925;-74
2023/10/27 03:12:55;;;;;;;;;;;9.10;99.90;;;;;;5013576;28;20016;-74
2023/10/27 03:15:22;;;;;;;;;;;9.10;99.90;;;;;;5012265;28;19929;-73
2023/10/27 03:17:48;;;;;;;;;;;9.10;99.90;;;;;;5011955;28;19931;-74
2023/10/27 03:20:15;;;;;;;;;;;9.10;99.90;;;;;;5014979;28;19969;-73
2023/10/27 03:22:43;;;;;;;;;;;9.10;99.90;;;;;;5012849;28;19925;-73
2023/10/27 03:25:10;;;;;;;;;;;9.10;99.90;;;;;;5012971;28;19926;-73
2023/10/27 03:27:36;;;;;;;;;;;9.10;99.90;;;;;;5013478;28;19926;-74
2023/10/27 03:30:03;;;;;;;;;;;9.10;99.90;;;;;;5011716;28;19929;-75
2023/10/27 03:32:29;;;;;;;;;;;9.10;99.90;;;;;;5012577;28;20391;-71
2023/10/27 03:34:56;;;;;;;;;;;9.10;99.90;;;;;;5012543;28;19979;-75
2023/10/27 03:37:22;;;;;;;;;;;9.00;99.90;;;;;;5014823;28;19934;-73
2023/10/27 03:39:51;;;;;;;;;;;9.00;99.90;;;;;;5012495;28;19988;-73
2023/10/27 03:42:17;;;;;;;;;;;9.00;99.90;;;;;;5011999;28;19925;-74
2023/10/27 03:44:44;;;;;;;;;;;9.00;99.90;;;;;;5011943;28;19984;-74
2023/10/27 03:47:10;;;;;;;;;;;9.00;99.90;;;;;;5010965;28;19979;-74
2023/10/27 03:49:37;;;;;;;;;;;8.90;99.90;;;;;;5011814;28;19926;-73
2023/10/27 03:52:03;;;;;;;;;;;8.90;99.90;;;;;;5012997;28;19942;-73
2023/10/27 03:54:30;;;;;;;;;;;8.90;99.90;;;;;;5011936;28;20447;-73
2023/10/27 03:57:01;;;;;;;;;;;8.90;99.90;;;;;;5010782;28;22384;-74
2023/10/27 03:59:28;;;;;;;;;;;8.90;99.90;;;;;;5012201;28;20016;-73
2023/10/27 04:01:54;;;;;;;;;;;8.90;99.90;;;;;;5011451;28;19929;-73
2023/10/27 04:04:21;;;;;;;;;;;9.00;99.90;;;;;;5012547;28;20449;-74
2023/10/27 04:06:47;;;;;;;;;;;9.00;99.90;;;;;;5013130;28;20467;-72
2023/10/27 04:09:14;;;;;;;;;;;9.00;99.90;;;;;;5011725;28;19929;-73
2023/10/27 04:11:40;;;;;;;;;;;9.00;99.90;;;;;;5012116;28;20387;-73
2023/10/27 04:14:08;;;;;;;;;;;9.00;99.90;;;;;;5011080;28;19951;-73
2023/10/27 04:16:35;;;;;;;;;;;9.00;99.90;;;;;;5011989;28;19925;-73
2023/10/27 04:19:01;;;;;;;;;;;9.10;99.90;;;;;;5012336;28;19925;-73
2023/10/27 04:21:28;;;;;;;;;;;9.00;99.90;;;;;;5011696;28;19929;-73
2023/10/27 04:23:55;;;;;;;;;;;9.00;99.90;;;;;;5011718;28;20414;-73
2023/10/27 04:26:21;;;;;;;;;;;9.00;99.90;;;;;;5011049;28;19925;-73
2023/10/27 04:28:48;;;;;;;;;;;9.00;99.90;;;;;;5011143;28;20419;-74
2023/10/27 04:31:16;;;;;;;;;;;9.00;99.90;;;;;;5011590;28;19925;-73
2023/10/27 04:33:43;;;;;;;;;;;9.00;99.90;;;;;;5008771;28;19988;-74
2023/10/27 04:36:09;;;;;;;;;;;9.00;99.90;;;;;;5011722;28;19932;-73
2023/10/27 04:38:36;;;;;;;;;;;8.90;99.90;;;;;;5010900;28;19996;-73
2023/10/27 04:41:02;;;;;;;;;;;8.90;99.90;;;;;;5013658;28;19979;-71
2023/10/27 04:43:29;;;;;;;;;;;8.80;99.90;;;;;;5011813;28;20011;-71
2023/10/27 04:45:55;;;;;;;;;;;8.70;99.90;;;;;;5010920;28;19925;-71
2023/10/27 04:48:23;;;;;;;;;;;8.60;99.90;;;;;;5011042;28;19934;-71
2023/10/27 04:50:53;;;;;;;;;;;8.50;99.90;;;;;;5010944;28;20010;-72
2023/10/27 04:53:20;;;;;;;;;;;8.50;99.90;;;;;;5011118;28;19926;-71
2023/10/27 04:55:46;;;;;;;;;;;8.50;99.90;;;;;;5011001;28;20438;-72
2023/10/27 04:58:13;;;;;;;;;;;8.50;99.90;;;;;;5010186;28;19930;-72
2023/10/27 05:00:39;;;;;;;;;;;8.50;99.90;;;;;;5011200;28;19926;-72
2023/10/27 05:03:07;;;;;;;;;;;8.60;99.90;;;;;;5011389;28;20423;-73
2023/10/27 05:05:35;;;;;;;;;;;8.60;99.90;;;;;;5010966;28;19929;-72
2023/10/27 05:08:02;;;;;;;;;;;8.60;99.90;;;;;;5010548;28;19929;-72
2023/10/27 05:10:28;;;;;;;;;;;8.70;99.90;;;;;;5010361;28;19995;-72
2023/10/27 05:12:55;;;;;;;;;;;8.70;99.90;;;;;;5011491;28;19929;-73
2023/10/27 05:15:22;;;;;;;;;;;8.70;99.90;;;;;;5011219;28;19936;-72
2023/10/27 05:17:49;;;;;;;;;;;8.80;99.90;;;;;;5009611;28;19926;-72
2023/10/27 05:20:16;;;;;;;;;;;8.80;99.90;;;;;;5010845;28;19925;-72
2023/10/27 05:22:44;;;;;;;;;;;8.80;99.90;;;;;;5010948;28;19925;-72
2023/10/27 05:25:10;;;;;;;;;;;8.80;99.90;;;;;;5011223;28;20384;-72
2023/10/27 05:27:37;;;;;;;;;;;8.80;99.90;;;;;;5010924;28;19925;-72
2023/10/27 05:30:04;;;;;;;;;;;8.80;99.90;;;;;;5010397;28;20007;-72
2023/10/27 05:32:32;;;;;;;;;;;8.80;99.90;;;;;;5010813;28;19971;-72
2023/10/27 05:34:59;;;;;;;;;;;8.90;99.90;;;;;;5010937;28;19925;-72
2023/10/27 05:37:26;;;;;;;;;;;8.90;99.90;;;;;;5009050;28;19992;-72
2023/10/27 05:39:54;;;;;;;;;;;9.00;99.90;;;;;;5011022;28;19952;-73
2023/10/27 05:42:21;;;;;;;;;;;9.00;99.90;;;;;;5010569;28;19992;-72
2023/10/27 05:44:47;;;;;;;;;;;9.00;99.90;;;;;;5010694;28;20396;-72
2023/10/27 05:47:15;;;;;;;;;;;8.90;99.90;;;;;;5009813;28;19976;-73
2023/10/27 05:49:42;;;;;;;;;;;9.00;99.90;;;;;;5009797;28;19948;-72
2023/10/27 05:52:08;;;;;;;;;;;8.90;99.90;;;;;;5013294;28;19987;-72
2023/10/27 05:54:35;;;;;;;;;;;8.90;99.90;;;;;;5010941;28;19975;-73
2023/10/27 05:57:03;;;;;;;;;;;8.90;99.90;;;;;;5005742;28;20906;-72
2023/10/27 05:59:30;;;;;;;;;;;9.00;99.90;;;;;;5010801;28;19925;-72
2023/10/27 06:01:56;;;;;;;;;;;9.00;99.90;;;;;;5009658;28;21107;-71
2023/10/27 06:04:23;;;;;;;;;;;9.00;99.90;;;;;;5010221;28;19925;-72
2023/10/27 06:06:49;;;;;;;;;;;9.00;99.90;;;;;;5010699;28;20339;-71
2023/10/27 06:09:16;;;;;;;;;;;9.00;99.90;;;;;;5011716;28;19957;-71
2023/10/27 06:11:42;;;;;;;;;;;9.00;99.90;;;;;;5014283;28;20391;-72
2023/10/27 06:14:10;;;;;;;;;;;9.00;99.90;;;;;;5014028;28;19925;-72
2023/10/27 06:16:37;;;;;;;;;;;9.00;99.90;;;;;;5013992;28;19956;-73
2023/10/27 06:19:04;;;;;;;;;;;9.10;99.90;;;;;;5013729;28;20383;-72
2023/10/27 06:21:31;;;;;;;;;;;9.10;99.90;;;;;;5013168;28;19929;-72
2023/10/27 06:23:57;;;;;;;;;;;9.10;99.90;;;;;;5014021;28;19925;-72
2023/10/27 06:26:25;;;;;;;;;;;9.20;99.90;;;;;;5013523;28;20384;-71
2023/10/27 06:28:52;;;;;;;;;;;9.20;99.90;;;;;;5008293;28;19933;-71
2023/10/27 06:31:20;;;;;;;;;;;9.20;99.90;;;;;;5012903;28;19925;-70
2023/10/27 06:33:47;;;;;;;;;;;9.30;99.90;;;;;;5009078;28;19933;-70
2023/10/27 06:36:13;;;;;;;;;;;9.50;99.90;;;;;;5009880;28;20404;-70
2023/10/27 06:38:39;;;;;;;;;;;9.80;99.90;;;;;;5009656;28;19980;-70
2023/10/27 06:41:06;;;;;;;;;;;10.20;99.90;;;;;;5009418;28;20422;-70
2023/10/27 06:43:32;;;;;;;;;;;10.60;99.90;;;;;;5010195;28;19934;-70
2023/10/27 06:45:59;;;;;;;;;;;10.80;99.90;;;;;;5009315;28;19971;-70
2023/10/27 06:48:27;;;;;;;;;;;10.90;99.90;;;;;;5008965;28;19998;-70
2023/10/27 06:50:53;;;;;;;;;;;11.00;99.90;;;;;;5007689;28;19980;-70
2023/10/27 06:53:20;;;;;;;;;;;11.20;99.90;;;;;;5010050;28;19934;-72
2023/10/27 06:55:46;;;;;;;;;;;11.30;99.90;;;;;;5008794;28;19929;-72
2023/10/27 06:58:13;;;;;;;;;;;11.10;99.90;;;;;;5008912;28;20009;-72
2023/10/27 07:00:39;;;;;;;;;;;10.90;99.90;;;;;;5009567;28;19926;-72
2023/10/27 07:03:06;;;;;;;;;;;10.60;99.90;;;;;;5010176;28;19971;-72
2023/10/27 07:05:34;;;;;;;;;;;10.40;99.90;;;;;;5009282;28;19937;-72
2023/10/27 07:08:00;;;;;;;;;;;10.20;99.90;;;;;;5008986;28;19940;-72
2023/10/27 07:10:27;;;;;;;;;;;10.00;99.90;;;;;;5009443;28;19933;-72
2023/10/27 07:12:53;;;;;;;;;;;9.90;99.90;;;;;;5009425;28;19979;-72
2023/10/27 07:15:20;;;;;;;;;;;9.80;99.90;;;;;;5009429;28;19937;-72
2023/10/27 07:17:47;;;;;;;;;;;9.70;99.90;;;;;;5007999;28;20469;-72
2023/10/27 07:20:14;;;;;;;;;;;9.70;99.90;;;;;;5008278;28;20312;-72
2023/10/27 07:22:42;;;;;;;;;;;9.70;99.90;;;;;;5009330;28;19937;-73
2023/10/27 07:25:09;;;;;;;;;;;9.70;99.90;;;;;;5008187;28;19925;-73
2023/10/27 07:27:36;;;;;;;;;;;9.70;99.90;;;;;;5008741;28;19930;-73
2023/10/27 07:30:02;;;;;;;;;;;9.80;99.90;;;;;;5008634;28;19992;-73
2023/10/27 07:32:29;;;;;;;;;;;9.80;99.90;;;;;;5008840;28;20360;-73
2023/10/27 07:34:56;;;;;;;;;;;9.80;99.90;;;;;;5008747;28;19986;-73
2023/10/27 07:37:23;;;;;;;;;;;9.90;99.90;;;;;;5007745;28;19933;-72
2023/10/27 07:39:51;;;;;;;;;;;9.90;99.90;;;;;;5008470;28;20327;-73
2023/10/27 07:42:17;;;;;;;;;;;9.90;99.90;;;;;;5009002;28;19960;-73
2023/10/27 07:44:44;;;;;;;;;;;10.00;99.90;;;;;;5008458;28;20359;-73
2023/10/27 07:47:10;;;;;;;;;;;9.90;99.90;;;;;;5008664;28;19934;-73
2023/10/27 07:49:37;;;;;;;;;;;10.00;99.90;;;;;;5007734;28;20078;-73
2023/10/27 07:52:05;;;;;;;;;;;10.00;99.90;;;;;;5006934;28;19955;-73
2023/10/27 07:54:32;;;;;;;;;;;10.00;99.90;;;;;;5009038;28;19948;-73
2023/10/27 07:57:00;;;;;;;;;;;10.00;99.90;;;;;;5008011;28;20018;-73
2023/10/27 07:59:27;;;;;;;;;;;10.00;99.90;;;;;;5009275;28;19933;-73
2023/10/27 08:01:54;;;;;;;;;;;9.90;99.90;;;;;;5008603;28;19933;-73
2023/10/27 08:04:22;;;;;;;;;;;9.90;99.90;;;;;;5008425;28;19933;-73
2023/10/27 08:06:49;;;;;;;;;;;9.90;99.90;;;;;;5007369;28;19933;-73
2023/10/27 08:09:15;;;;;;;;;;;9.90;99.90;;;;;;5008104;28;20000;-73
2023/10/27 08:11:42;;;;;;;;;;;10.00;99.90;;;;;;5008462;28;19995;-73
2023/10/27 08:14:10;;;;;;;;;;;9.90;99.90;;;;;;5008623;28;20388;-73
2023/10/27 08:16:37;;;;;;;;;;;10.00;99.90;;;;;;5008045;28;19933;-73
2023/10/27 08:19:03;;;;;;;;;;;10.00;99.90;;;;;;5008320;28;19926;-73
2023/10/27 08:21:30;;;;;;;;;;;10.00;99.90;;;;;;5007549;28;19933;-73
2023/10/27 08:23:56;;;;;;;;;;;10.00;99.90;;;;;;5007011;28;19968;-73
2023/10/27 08:26:23;;;;;;;;;;;10.00;99.90;;;;;;5007823;28;20525;-73
2023/10/27 08:28:49;;;;;;;;;;;10.00;99.90;;;;;;5008147;28;19933;-73
2023/10/27 08:31:17;;;;;;;;;;;10.00;99.90;;;;;;5007834;28;20362;-73
2023/10/27 08:33:43;;;;;;;;;;;10.00;99.90;;;;;;5008407;28;19926;-73
2023/10/27 08:36:11;;;;;;;;;;;10.10;99.90;;;;;;5008200;28;20620;-73
2023/10/27 08:38:37;;;;;;;;;;;10.10;99.90;;;;;;5006625;28;19961;-73
2023/10/27 08:41:05;;;;;;;;;;;10.10;99.90;;;;;;5008279;28;19933;-73
2023/10/27 08:43:32;;;;;;;;;;;10.20;99.90;;;;;;5008413;28;19985;-73
2023/10/27 08:45:59;;;;;;;;;;;10.20;99.90;;;;;;5007485;28;20387;-73
2023/10/27 08:48:27;;;;;;;;;;;10.20;99.90;;;;;;5006858;28;20355;-73
2023/10/27 08:50:57;;;;;;;;;;;10.20;99.90;;;;;;5007810;28;19926;-73
2023/10/27 08:53:24;;;;;;;;;;;10.20;99.90;;;;;;5007461;28;20329;-73
2023/10/27 08:55:51;;;;;;;;;;;10.30;99.90;;;;;;5007536;28;19930;-73
2023/10/27 08:58:17;;;;;;;;;;;10.30;99.90;;;;;;5007149;28;19925;-73
2023/10/27 09:00:47;;;;;;;;;;;10.40;99.90;;;;;;5007609;28;19933;-73
2023/10/27 09:03:14;;;;;;;;;;;10.40;99.90;;;;;;5007915;28;19933;-73
2023/10/27 09:05:42;;;;;;;;;;;10.40;99.90;;;;;;5007076;28;19969;-73
2023/10/27 09:08:09;;;;;;;;;;;10.50;99.90;;;;;;5006901;28;19929;-73
2023/10/27 09:10:36;;;;;;;;;;;10.60;99.90;;;;;;5006732;28;20366;-73
2023/10/27 09:13:03;;;;;;;;;;;10.60;99.90;;;;;;5008239;28;19934;-73
2023/10/27 09:15:40;;;;;;;;;;;10.50;99.90;;;;;;5006130;28;19989;-73
2023/10/27 09:18:08;;;;;;;;;;;10.50;99.90;;;;;;5007140;28;19979;-73
2023/10/27 09:20:46;;;;;;;;;;;10.50;99.90;;;;;;5006638;28;20052;-73
2023/10/27 09:23:13;;;;;;;;;;;10.50;99.90;;;;;;5007539;28;19937;-73
2023/10/27 09:25:40;;;;;;;;;;;10.50;99.90;;;;;;5006992;28;19937;-73
2023/10/27 09:28:07;;;;;;;;;;;10.40;99.90;;;;;;5006618;28;20388;-73
2023/10/27 09:30:34;;;;;;;;;;;10.40;99.90;;;;;;5006924;28;19969;-73
2023/10/27 09:33:11;;;;;;;;;;;10.30;99.90;;;;;;5007410;28;19933;-73
2023/10/27 09:35:38;;;;;;;;;;;10.30;99.90;;;;;;5007111;28;19932;-73
2023/10/27 09:38:06;;;;;;;;;;;10.30;99.90;;;;;;5006250;28;20001;-73
2023/10/27 09:40:35;;;;;;;;;;;10.40;99.90;;;;;;5006764;28;20021;-73
2023/10/27 09:43:02;;;;;;;;;;;10.30;99.90;;;;;;5010609;28;19952;-73
2023/10/27 09:45:30;;;;;;;;;;;10.30;99.90;;;;;;5009848;28;19933;-73
2023/10/27 09:48:02;;;;;;;;;;;10.30;99.90;;;;;;5010228;28;20563;-73
2023/10/27 09:50:29;;;;;;;;;;;10.30;99.90;;;;;;5011721;28;19926;-73
2023/10/27 09:52:57;;;;;;;;;;;10.30;99.90;;;;;;5010997;28;20469;-73
2023/10/27 09:55:25;;;;;;;;;;;10.20;99.90;;;;;;5010950;28;20470;-73
2023/10/27 09:57:53;;;;;;;;;;;10.30;99.90;;;;;;5010579;28;19933;-73
2023/10/27 10:00:20;;;;;;;;;;;10.20;99.90;;;;;;5011160;28;19925;-73
2023/10/27 10:02:47;;;;;;;;;;;10.30;99.90;;;;;;5010991;28;19956;-73
2023/10/27 10:05:14;;;;;;;;;;;10.30;99.90;;;;;;5011285;28;19929;-73
2023/10/27 10:07:44;;;;;;;;;;;10.30;99.90;;;;;;5010921;28;19937;-73
2023/10/27 10:10:17;;;;;;;;;;;10.30;99.90;;;;;;5010982;28;19929;-73
2023/10/27 10:13:04;;;;;;;;;;;10.40;99.90;;;;;;5010813;28;19956;-73
2023/10/27 10:15:32;;;;;;;;;;;10.40;99.90;;;;;;5010914;28;19932;-72
2023/10/27 10:17:58;;;;;;;;;;;10.40;99.90;;;;;;5010997;28;19925;-72
2023/10/27 10:20:52;;;;;;;;;;;10.50;99.90;;;;;;5010108;28;19984;-72
2023/10/27 10:23:19;;;;;;;;;;;10.50;99.90;;;;;;5009532;28;19934;-73
2023/10/27 10:25:50;;;;;;;;;;;10.50;99.90;;;;;;5010504;28;19926;-72
2023/10/27 10:28:29;;;;;;;;;;;10.50;99.90;;;;;;5009048;28;20399;-72
2023/10/27 10:31:28;;;;;;;;;;;10.50;99.90;;;;;;5009386;28;19972;-72
2023/10/27 10:34:10;;;;;;;;;;;10.60;99.90;;;;;;4967803;28;19938;-72
2023/10/27 10:36:37;;;;;;;;;;;10.60;99.90;;;;;;4964130;28;19934;-72
2023/10/27 10:39:04;;;;;;;;;;;10.60;99.90;;;;;;4989317;28;19933;-72
2023/10/27 10:41:54;;;;;;;;;;;10.70;99.90;;;;;;5009454;28;19925;-72
2023/10/27 10:44:22;;;;;;;;;;;10.80;99.90;;;;;;5010182;28;19933;-72
2023/10/27 10:46:49;;;;;;;;;;;10.80;99.90;;;;;;5009105;28;19995;-72
2023/10/27 10:49:22;;;;;;;;;;;10.90;99.90;;;;;;5009897;28;19925;-71
2023/10/27 10:51:51;;;;;;;;;;;10.90;99.90;;;;;;5009722;28;19933;-71
2023/10/27 10:54:17;;;;;;;;;;;11.10;99.90;;;;;;5009332;28;20280;-71
2023/10/27 10:56:44;;;;;;;;;;;11.20;99.90;;;;;;5008642;28;19933;-72
2023/10/27 10:59:19;;;;;;;;;;;11.40;99.90;;;;;;5009719;28;19926;-71
2023/10/27 11:01:54;;;;;;;;;;;11.60;99.90;;;;;;5004630;28;19933;-71
2023/10/27 11:04:27;;;;;;;;;;;11.70;99.90;;;;;;5008593;28;20009;-71
2023/10/27 11:06:57;;;;;;;;;;;11.80;99.90;;;;;;5007557;28;20774;-71
2023/10/27 11:09:24;;;;;;;;;;;11.90;99.90;;;;;;5005882;28;19929;-71
2023/10/27 11:11:51;;;;;;;;;;;12.10;99.90;;;;;;5005821;28;19926;-71
2023/10/27 11:14:17;;;;;;;;;;;12.40;99.90;;;;;;5008914;28;19987;-71
2023/10/27 11:16:44;;;;;;;;;;;12.50;99.90;;;;;;5008241;28;19933;-71
2023/10/27 11:19:16;;;;;;;;;;;12.60;99.90;;;;;;5008360;28;19937;-71
2023/10/27 11:21:43;;;;;;;;;;;12.80;99.90;;;;;;5009965;28;19926;-72
2023/10/27 11:24:11;;;;;;;;;;;12.90;99.90;;;;;;5008524;28;20048;-73
2023/10/27 11:26:40;;;;;;;;;;;13.00;99.90;;;;;;5000441;28;20011;-72
2023/10/27 11:29:07;;;;;;;;;;;12.90;99.90;;;;;;5008438;28;20204;-72
2023/10/27 11:31:39;;;;;;;;;;;13.20;99.90;;;;;;5008665;28;19929;-72
2023/10/27 11:34:06;;;;;;;;;;;13.50;99.90;;;;;;5009522;28;19941;-72
2023/10/27 11:36:35;;;;;;;;;;;13.70;99.90;;;;;;5008757;28;20474;-72
2023/10/27 11:39:11;;;;;;;;;;;13.80;99.90;;;;;;5008707;28;19925;-72
2023/10/27 11:41:37;;;;;;;;;;;13.80;99.90;;;;;;5008980;28;19956;-72
2023/10/27 11:44:04;;;;;;;;;;;14.20;99.90;;;;;;5006489;28;19933;-72
2023/10/27 11:46:30;;;;;;;;;;;14.50;99.90;;;;;;5008902;28;19980;-72
2023/10/27 11:48:57;;;;;;;;;;;14.70;99.90;;;;;;5007260;28;19938;-72
2023/10/27 11:51:23;;;;;;;;;;;14.50;99.90;;;;;;5008528;28;19933;-72
2023/10/27 11:53:51;;;;;;;;;;;14.40;99.90;;;;;;5007892;28;19955;-72
2023/10/27 11:56:18;;;;;;;;;;;14.40;99.90;;;;;;5007656;28;19934;-72
2023/10/27 11:58:44;;;;;;;;;;;14.50;99.90;;;;;;5007916;28;19934;-72
2023/10/27 12:01:11;;;;;;;;;;;14.80;99.90;;;;;;5008258;28;19980;-72
2023/10/27 12:03:37;;;;;;;;;;;15.10;99.90;;;;;;5007781;28;19937;-73
2023/10/27 12:06:04;;;;;;;;;;;14.90;99.90;;;;;;5007171;28;19971;-72
2023/10/27 12:08:30;;;;;;;;;;;14.80;99.90;;;;;;5008127;28;20490;-72
2023/10/27 12:10:59;;;;;;;;;;;14.60;99.90;;;;;;5007393;28;19983;-72
2023/10/27 12:13:26;;;;;;;;;;;14.70;99.90;;;;;;5007794;28;19939;-72
2023/10/27 12:15:52;;;;;;;;;;;15.10;99.90;;;;;;5007387;28;20284;-71
2023/10/27 12:18:20;;;;;;;;;;;15.90;99.90;;;;;;5007448;28;20005;-71
2023/10/27 12:20:47;;;;;;;;;;;16.00;99.90;;;;;;5007289;28;20319;-72
2023/10/27 12:23:13;;;;;;;;;;;15.90;99.90;;;;;;5008154;28;19937;-72
2023/10/27 12:25:40;;;;;;;;;;;16.10;99.90;;;;;;5007539;28;20391;-72
2023/10/27 12:28:08;;;;;;;;;;;16.20;99.90;;;;;;5006629;28;19979;-72
2023/10/27 12:30:36;;;;;;;;;;;16.20;99.90;;;;;;5007808;28;20319;-72
2023/10/27 12:33:03;;;;;;;;;;;16.10;99.90;;;;;;5007941;28;19968;-72
2023/10/27 12:35:30;;;;;;;;;;;15.90;99.90;;;;;;5006078;28;19969;-72
2023/10/27 12:37:57;;;;;;;;;;;16.00;99.90;;;;;;5007161;28;19933;-71
2023/10/27 12:40:24;;;;;;;;;;;16.20;99.90;;;;;;5006818;28;19929;-72
2023/10/27 12:42:51;;;;;;;;;;;16.20;99.90;;;;;;5008215;28;19932;-72
2023/10/27 12:45:19;;;;;;;;;;;16.20;99.90;;;;;;5007151;28;19937;-72
2023/10/27 12:47:46;;;;;;;;;;;16.10;99.90;;;;;;5007424;28;19972;-71
2023/10/27 12:50:13;;;;;;;;;;;16.30;99.90;;;;;;5007555;28;20019;-72
2023/10/27 12:52:40;;;;;;;;;;;16.30;99.90;;;;;;5007696;28;20057;-72
2023/10/27 12:55:07;;;;;;;;;;;16.30;99.90;;;;;;5007282;28;20000;-72
2023/10/27 12:57:33;;;;;;;;;;;15.90;99.90;;;;;;5007802;28;19988;-71
2023/10/27 13:00:00;;;;;;;;;;;15.70;99.90;;;;;;5007834;28;19934;-72
2023/10/27 13:02:28;;;;;;;;;;;15.90;99.90;;;;;;5007322;28;19926;-72
2023/10/27 13:04:56;;;;;;;;;;;15.90;99.90;;;;;;5007751;28;20450;-72
2023/10/27 13:07:23;;;;;;;;;;;16.00;99.90;;;;;;5006753;28;19926;-72
2023/10/27 13:09:49;;;;;;;;;;;16.20;99.90;;;;;;5007451;28;20307;-72
2023/10/27 13:12:16;;;;;;;;;;;16.40;99.90;;;;;;5007724;28;19930;-73
2023/10/27 13:14:43;;;;;;;;;;;16.60;99.90;;;;;;5006769;28;20399;-72
2023/10/27 13:17:10;;;;;;;;;;;16.90;99.90;;;;;;5005438;28;20404;-72
2023/10/27 13:19:38;;;;;;;;;;;16.60;99.90;;;;;;5007682;28;19969;-72
2023/10/27 13:22:04;;;;;;;;;;;16.60;99.90;;;;;;5006804;28;19929;-72
2023/10/27 13:24:32;;;;;;;;;;;16.60;99.90;;;;;;4999885;28;19933;-73
2023/10/27 13:26:58;;;;;;;;;;;16.90;99.90;;;;;;4995425;28;19940;-73
2023/10/27 13:29:25;;;;;;;;;;;17.20;99.90;;;;;;5007455;28;20346;-72
2023/10/27 13:31:52;;;;;;;;;;;17.30;99.90;;;;;;5007019;28;21146;-73
2023/10/27 13:34:19;;;;;;;;;;;17.10;99.90;;;;;;5007809;28;19933;-72
2023/10/27 13:36:47;;;;;;;;;;;16.90;99.90;;;;;;5006235;28;19960;-72
2023/10/27 13:39:14;;;;;;;;;;;16.40;99.90;;;;;;5007215;28;19926;-72
2023/10/27 13:41:40;;;;;;;;;;;16.00;99.90;;;;;;5007084;28;19972;-72
2023/10/27 13:44:07;;;;;;;;;;;15.90;99.90;;;;;;5007306;28;19929;-73
2023/10/27 13:46:35;;;;;;;;;;;15.90;99.90;;;;;;5007168;28;19934;-73
2023/10/27 13:49:06;;;;;;;;;;;15.90;99.90;;;;;;5006923;28;19938;-72
2023/10/27 13:51:32;;;;;;;;;;;15.90;99.90;;;;;;5007610;28;20032;-73
2023/10/27 13:54:00;;;;;;;;;;;16.00;99.90;;;;;;5007076;28;19929;-72
2023/10/27 13:56:27;;;;;;;;;;;16.10;99.90;;;;;;5007037;28;19937;-72
2023/10/27 13:58:54;;;;;;;;;;;16.10;99.90;;;;;;5006813;28;19984;-72
2023/10/27 14:01:21;;;;;;;;;;;16.00;99.90;;;;;;5006532;28;19933;-72
2023/10/27 14:03:49;;;;;;;;;;;16.00;99.90;;;;;;5006056;28;19925;-72
2023/10/27 14:06:16;;;;;;;;;;;15.80;99.90;;;;;;5006842;28;20021;-71
2023/10/27 14:08:43;;;;;;;;;;;15.50;99.90;;;;;;5006625;28;19961;-72
2023/10/27 14:11:11;;;;;;;;;;;15.40;99.90;;;;;;5005677;28;19925;-72
2023/10/27 14:13:37;;;;;;;;;;;15.20;99.90;;;;;;5006738;28;19929;-72
2023/10/27 14:16:05;;;;;;;;;;;15.30;99.90;;;;;;5006265;28;19929;-72
2023/10/27 14:18:31;;;;;;;;;;;15.40;99.90;;;;;;5005408;28;19929;-72
2023/10/27 14:20:59;;;;;;;;;;;15.20;99.90;;;;;;5005661;28;19933;-72
2023/10/27 14:23:26;;;;;;;;;;;15.10;99.90;;;;;;5006648;28;20449;-72